Time;durP1;ratioP1;P1;durP2;ratioP2;P2;SDS_P1;SDS_P2;PMS_P1;PMS_P2;Temp;Humidity;BMP_temperature;BMP_pressure;BME280_temperature;BME280_humidity;BME280_pressure;Samples;Min_cycle;Max_cycle;Signal;HPM_P1;HPM_P2
2023/06/21 00:02:17;;;;;;;35.35;25.02;;;;;;;18.55;100.00;101224.69;5050940;28;20024;-48
2023/06/21 00:04:43;;;;;;;42.53;27.17;;;;;;;18.53;100.00;101226.81;5046604;28;20085;-48
2023/06/21 00:07:08;;;;;;;41.83;26.42;;;;;;;18.53;100.00;101224.09;5036501;28;20029;-49
2023/06/21 00:09:33;;;;;;;44.95;27.55;;;;;;;18.53;100.00;101229.53;5048048;28;20420;-47
2023/06/21 00:11:59;;;;;;;46.17;28.75;;;;;;;18.50;100.00;101224.53;5024725;28;20033;-46
2023/06/21 00:14:24;;;;;;;45.67;27.40;;;;;;;18.48;100.00;101226.66;5042652;28;20033;-48
2023/06/21 00:16:51;;;;;;;49.67;28.70;;;;;;;18.49;100.00;101227.50;5033650;28;20052;-47
2023/06/21 00:19:16;;;;;;;51.78;29.67;;;;;;;18.48;100.00;101231.28;5049976;28;20029;-48
2023/06/21 00:21:41;;;;;;;43.40;28.38;;;;;;;18.47;100.00;101245.97;5029979;28;20483;-46
2023/06/21 00:24:07;;;;;;;42.42;27.83;;;;;;;18.46;100.00;101236.09;5034745;28;20029;-48
2023/06/21 00:26:33;;;;;;;41.17;26.52;;;;;;;18.41;100.00;101247.72;5031322;28;20224;-51
2023/06/21 00:28:58;;;;;;;40.13;26.02;;;;;;;18.38;100.00;101248.16;5039151;28;20036;-48
2023/06/21 00:31:23;;;;;;;44.00;26.77;;;;;;;18.38;100.00;101248.16;5049884;28;20123;-47
2023/06/21 00:33:50;;;;;;;39.50;23.85;;;;;;;18.33;100.00;101242.53;5049754;28;20021;-50
2023/06/21 00:36:15;;;;;;;37.35;23.92;;;;;;;18.35;100.00;101238.53;5051078;28;20387;-51
2023/06/21 00:38:41;;;;;;;37.00;23.30;;;;;;;18.31;100.00;101250.94;5038609;28;20021;-48
2023/06/21 00:41:06;;;;;;;38.28;21.60;;;;;;;18.31;100.00;101256.38;5040410;28;20642;-49
2023/06/21 00:43:31;;;;;;;38.55;21.67;;;;;;;18.29;100.00;101250.31;5050034;28;20117;-47
2023/06/21 00:45:57;;;;;;;35.67;21.55;;;;;;;18.28;100.00;101256.00;5051036;28;20368;-49
2023/06/21 00:48:23;;;;;;;31.40;20.90;;;;;;;18.27;100.00;101270.66;5049429;28;20178;-47
2023/06/21 00:50:49;;;;;;;33.13;20.95;;;;;;;18.21;100.00;101275.94;5046118;28;20036;-48
2023/06/21 00:53:15;;;;;;;30.42;19.73;;;;;;;18.19;100.00;101282.66;5036183;28;20451;-48
2023/06/21 00:55:41;;;;;;;34.50;20.50;;;;;;;18.16;100.00;101289.41;5039345;28;20029;-49
2023/06/21 00:58:09;;;;;;;28.98;19.70;;;;;;;18.18;100.00;101287.28;5048572;28;20123;-47
2023/06/21 01:00:35;;;;;;;35.22;20.88;;;;;;;18.17;100.00;101291.09;5050543;28;20017;-47
2023/06/21 01:03:01;;;;;;;32.80;18.70;;;;;;;18.17;100.00;101284.81;5032411;28;20503;-49
2023/06/21 01:05:29;;;;;;;31.00;19.02;;;;;;;18.17;100.00;101291.09;5048924;28;20124;-50
2023/06/21 01:08:02;;;;;;;32.40;19.75;;;;;;;18.17;100.00;101299.25;5048854;28;20028;-48
2023/06/21 01:10:36;;;;;;;31.25;19.85;;;;;;;18.16;100.00;101300.28;5045504;28;20037;-50
2023/06/21 01:13:21;;;;;;;35.60;21.38;;;;;;;18.14;100.00;101291.53;5050923;28;20041;-49
2023/06/21 01:15:48;;;;;;;32.13;21.23;;;;;;;18.13;100.00;101295.28;5048411;28;20033;-50
2023/06/21 01:18:14;;;;;;;37.17;20.98;;;;;;;18.12;100.00;101299.09;5035938;28;20032;-53
2023/06/21 01:20:44;;;;;;;36.15;19.85;;;;;;;18.12;100.00;101311.88;5014936;28;20318;-48
2023/06/21 01:23:23;;;;;;;33.88;20.85;;;;;;;18.13;100.00;101317.09;5029907;28;20039;-48
2023/06/21 01:26:06;;;;;;;31.02;18.90;;;;;;;18.08;100.00;101314.19;5029532;28;20025;-49
2023/06/21 01:28:42;;;;;;;36.25;20.25;;;;;;;18.07;100.00;101309.81;5034909;28;20033;-48
2023/06/21 01:31:09;;;;;;;36.28;19.45;;;;;;;18.05;100.00;101317.34;5039222;28;20581;-49
2023/06/21 01:33:35;;;;;;;32.35;18.63;;;;;;;18.03;100.00;101311.28;5037118;28;20051;-48
2023/06/21 01:36:03;;;;;;;29.92;17.50;;;;;;;17.98;100.00;101308.38;5047147;28;20021;-48
2023/06/21 01:38:28;;;;;;;30.92;16.73;;;;;;;17.99;100.00;101305.44;5030719;28;20030;-49
2023/06/21 01:40:54;;;;;;;28.17;16.17;;;;;;;17.99;100.00;101301.91;5049263;28;20378;-50
2023/06/21 01:43:20;;;;;;;22.90;14.68;;;;;;;17.93;100.00;101291.88;5047705;28;20059;-49
2023/06/21 01:45:46;;;;;;;25.63;13.40;;;;;;;17.89;100.00;101285.22;5046459;28;20511;-51
2023/06/21 01:48:11;;;;;;;18.80;11.00;;;;;;;17.85;100.00;101283.97;5042597;28;20455;-49
2023/06/21 01:50:37;;;;;;;19.90;10.60;;;;;;;17.83;100.00;101280.66;5031503;28;20072;-48
2023/06/21 01:53:04;;;;;;;21.75;10.60;;;;;;;17.81;100.00;101269.97;5029167;28;20108;-49
2023/06/21 01:55:30;;;;;;;;;;;;;;;17.78;100.00;101267.66;5047585;28;20029;-46
2023/06/21 01:57:56;;;;;;;21.55;8.70;;;;;;;17.77;100.00;101275.00;5045060;28;19927;-47
2023/06/21 02:00:22;;;;;;;14.68;8.15;;;;;;;17.76;100.00;101262.41;5036661;28;20394;-48
2023/06/21 02:02:50;;;;;;;16.23;8.60;;;;;;;17.75;100.00;101266.19;5048643;28;20029;-48
2023/06/21 02:05:16;;;;;;;15.70;7.32;;;;;;;17.71;100.00;101264.97;5037251;28;20029;-47
2023/06/21 02:07:44;;;;;;;21.98;7.70;;;;;;;17.68;100.00;101276.28;5068298;28;20525;-50
2023/06/21 02:10:11;;;;;;;13.13;7.57;;;;;;;17.65;100.00;101282.19;5057670;28;20039;-48
2023/06/21 02:12:36;;;;;;;14.43;6.85;;;;;;;17.63;100.00;101292.44;5053411;28;20111;-48
2023/06/21 02:15:03;;;;;;;12.40;6.10;;;;;;;17.63;100.00;101297.88;5037156;28;20653;-49
2023/06/21 02:17:29;;;;;;;9.98;6.50;;;;;;;17.63;100.00;101289.72;5053602;28;20031;-50
2023/06/21 02:19:55;;;;;;;10.05;6.40;;;;;;;17.58;100.00;101286.81;5046885;28;20364;-48
2023/06/21 02:22:21;;;;;;;12.93;5.80;;;;;;;17.60;100.00;101290.16;5033937;28;20033;-49
2023/06/21 02:24:46;;;;;;;11.25;6.28;;;;;;;17.61;100.00;101278.19;5051207;28;20041;-49
2023/06/21 02:27:13;;;;;;;9.50;5.78;;;;;;;17.60;100.00;101287.44;5043628;28;20474;-48
2023/06/21 02:29:38;;;;;;;12.52;5.57;;;;;;;17.59;100.00;101291.22;5039712;28;20021;-46
2023/06/21 02:32:04;;;;;;;12.38;5.72;;;;;;;17.57;100.00;101295.22;5050727;28;20064;-49
2023/06/21 02:34:29;;;;;;;11.30;6.05;;;;;;;17.52;100.00;101299.41;5048632;28;20076;-52
2023/06/21 02:36:55;;;;;;;9.93;5.95;;;;;;;17.48;100.00;101302.78;5043072;28;20025;-49
2023/06/21 02:39:21;;;;;;;10.05;5.50;;;;;;;17.44;100.00;101305.09;5041752;28;20025;-48
2023/06/21 02:41:47;;;;;;;11.05;5.43;;;;;;;17.41;100.00;101305.53;5046278;28;20033;-49
2023/06/21 02:44:13;;;;;;;8.18;4.90;;;;;;;17.38;100.00;101296.94;5036346;28;20123;-47
2023/06/21 02:46:38;;;;;;;12.10;4.63;;;;;;;17.38;100.00;101292.38;5044867;28;20122;-47
2023/06/21 02:49:03;;;;;;;9.88;4.93;;;;;;;17.42;100.00;101298.19;5040829;28;20059;-50
2023/06/21 02:51:29;;;;;;;6.63;4.20;;;;;;;17.39;100.00;101304.09;5038680;28;20022;-52
2023/06/21 02:53:57;;;;;;;12.50;4.70;;;;;;;17.41;100.00;101304.72;5042113;28;20036;-49
2023/06/21 02:56:22;;;;;;;7.10;4.53;;;;;;;17.41;100.00;101312.88;5033731;28;20071;-48
2023/06/21 02:58:49;;;;;;;9.02;4.90;;;;;;;17.43;100.00;101313.47;5035383;28;20065;-47
2023/06/21 03:01:16;;;;;;;7.30;4.68;;;;;;;17.43;100.00;101317.03;5036802;28;20025;-49
2023/06/21 03:03:44;;;;;;;9.07;4.40;;;;;;;17.48;100.00;101324.53;5030430;28;20447;-49
2023/06/21 03:06:11;;;;;;;9.25;4.18;;;;;;;17.48;100.00;101319.97;5030679;28;20025;-46
2023/06/21 03:08:38;;;;;;;9.98;4.53;;;;;;;17.49;100.00;101331.66;5051314;28;20017;-47
2023/06/21 03:11:08;;;;;;;9.33;4.47;;;;;;;17.48;100.00;101330.84;5051765;28;20029;-48
2023/06/21 03:13:37;;;;;;;8.82;4.25;;;;;;;17.47;100.00;101339.22;5050496;28;20029;-50
2023/06/21 03:16:04;;;;;;;10.15;4.47;;;;;;;17.45;100.00;101335.84;5043703;28;20475;-49
2023/06/21 03:18:30;;;;;;;4.30;3.90;;;;;;;17.43;100.00;101346.13;5050740;28;20051;-48
2023/06/21 03:21:00;;;;;;;7.30;4.32;;;;;;;17.40;100.00;101355.53;5046994;28;20026;-49
2023/06/21 03:23:26;;;;;;;4.80;3.38;;;;;;;17.42;100.00;101355.34;5051247;28;20148;-51
2023/06/21 03:25:52;;;;;;;6.50;4.18;;;;;;;17.39;100.00;101353.88;5033519;28;20056;-50
2023/06/21 03:28:17;;;;;;;5.90;4.28;;;;;;;17.39;100.00;101363.94;5032135;28;20056;-48
2023/06/21 03:30:42;;;;;;;9.65;4.60;;;;;;;17.39;100.00;101358.50;5049357;28;20529;-49
2023/06/21 03:33:08;;;;;;;6.72;3.83;;;;;;;17.40;100.00;101354.72;5037364;28;20017;-49
2023/06/21 03:35:33;;;;;;;6.78;3.80;;;;;;;17.41;100.00;101361.84;5045408;28;20056;-48
2023/06/21 03:38:00;;;;;;;9.00;4.20;;;;;;;17.43;100.00;101360.59;5041047;28;20024;-48
2023/06/21 03:40:26;;;;;;;9.45;4.25;;;;;;;17.44;100.00;101355.97;5052153;28;20044;-49
2023/06/21 03:42:51;;;;;;;8.10;4.35;;;;;;;17.43;100.00;101354.28;5043875;28;20245;-46
2023/06/21 03:45:16;;;;;;;13.80;4.43;;;;;;;17.44;100.00;101372.28;5052031;28;20510;-49
2023/06/21 03:47:43;;;;;;;11.20;4.15;;;;;;;17.44;100.00;101367.69;5050989;28;20033;-51
2023/06/21 03:50:09;;;;;;;10.03;3.93;;;;;;;17.45;100.00;101360.34;5040941;28;20044;-50
2023/06/21 03:52:35;;;;;;;10.57;4.22;;;;;;;17.46;100.00;101371.03;5038004;28;20033;-47
2023/06/21 03:55:02;;;;;;;9.75;3.83;;;;;;;17.50;100.00;101380.41;5038845;28;20434;-47
2023/06/21 03:57:27;;;;;;;10.02;4.40;;;;;;;17.50;100.00;101372.25;5040445;28;20133;-48
2023/06/21 03:59:52;;;;;;;9.70;4.00;;;;;;;17.53;100.00;101384.59;5039102;28;20490;-48
2023/06/21 04:02:20;;;;;;;9.88;3.83;;;;;;;17.50;100.00;101382.31;5033024;28;20428;-48
2023/06/21 04:04:45;;;;;;;8.73;3.45;;;;;;;17.50;100.00;101383.16;5033537;28;20053;-46
2023/06/21 04:07:11;;;;;;;11.93;3.90;;;;;;;17.55;100.00;101387.94;5039526;28;20117;-49
2023/06/21 04:09:38;;;;;;;11.35;4.38;;;;;;;17.57;100.00;101388.56;5040747;28;20033;-48
2023/06/21 04:12:05;;;;;;;10.82;4.80;;;;;;;17.57;100.00;101382.31;5044218;28;20100;-48
2023/06/21 04:14:30;;;;;;;10.95;4.13;;;;;;;17.62;100.00;101401.56;5047855;28;20027;-49
2023/06/21 04:16:55;;;;;;;11.30;4.22;;;;;;;17.57;100.00;101401.34;5042257;28;20357;-48
2023/06/21 04:19:21;;;;;;;7.40;3.80;;;;;;;17.61;100.00;101411.56;5046718;28;20119;-48
2023/06/21 04:21:46;;;;;;;11.23;4.00;;;;;;;17.57;100.00;101399.47;5050406;28;20037;-48
2023/06/21 04:24:11;;;;;;;11.85;3.55;;;;;;;17.58;100.00;101412.00;5043825;28;20025;-47
2023/06/21 04:26:37;;;;;;;7.13;3.40;;;;;;;17.54;100.00;101402.63;5036030;28;20033;-48
2023/06/21 04:29:02;;;;;;;7.35;3.70;;;;;;;17.59;100.00;101402.81;5030124;28;20033;-50
2023/06/21 04:31:28;;;;;;;6.82;3.38;;;;;;;17.59;100.00;101402.81;5046381;28;20036;-49
2023/06/21 04:33:54;;;;;;;6.95;3.38;;;;;;;17.63;100.00;101403.22;5048940;28;20032;-46
2023/06/21 04:36:20;;;;;;;6.40;3.38;;;;;;;17.62;100.00;101398.81;5036410;28;20033;-48
2023/06/21 04:38:48;;;;;;;10.13;3.10;;;;;;;17.62;100.00;101402.38;5047136;28;20033;-47
2023/06/21 04:41:15;;;;;;;10.48;3.40;;;;;;;17.68;100.00;101409.69;5048265;28;20021;-46
2023/06/21 04:43:41;;;;;;;6.75;2.80;;;;;;;17.59;100.00;101397.38;5047535;28;20391;-49
2023/06/21 04:46:07;;;;;;;8.35;3.00;;;;;;;17.64;100.00;101407.59;5040798;28;20025;-46
2023/06/21 04:48:32;;;;;;;10.45;2.80;;;;;;;17.64;100.00;101403.00;5036566;28;20025;-47
2023/06/21 04:50:58;;;;;;;9.63;2.72;;;;;;;17.68;100.00;101401.50;5039679;28;20033;-48
2023/06/21 04:53:29;;;;;;;7.38;3.38;;;;;;;17.75;100.00;101401.50;5034616;28;20029;-48
2023/06/21 04:55:57;;;;;;;8.90;2.70;;;;;;;17.78;100.00;101406.50;5024854;28;20107;-51
2023/06/21 04:58:25;;;;;;;6.85;2.67;;;;;;;17.80;100.00;101411.75;5031368;28;20087;-50
2023/06/21 05:00:51;;;;;;;7.13;2.58;;;;;;;17.80;100.00;101411.75;5037675;28;20067;-48
2023/06/21 05:03:17;;;;;;;7.20;3.05;;;;;;;17.79;100.00;101408.19;5045260;28;20040;-47
2023/06/21 05:05:42;;;;;;;8.80;3.10;;;;;;;17.76;100.00;101409.44;5050690;28;20053;-47
2023/06/21 05:08:08;;;;;;;10.20;2.83;;;;;;;17.81;100.00;101408.00;5044179;28;20037;-49
2023/06/21 05:10:34;;;;;;;12.43;3.63;;;;;;;17.73;100.00;101426.19;5029385;28;20024;-49
2023/06/21 05:12:59;;;;;;;8.48;2.97;;;;;;;17.78;100.00;101418.22;5028576;28;20068;-48
2023/06/21 05:15:24;;;;;;;8.50;2.80;;;;;;;17.78;100.00;101418.22;5040784;28;20337;-52
2023/06/21 05:17:50;;;;;;;11.48;3.20;;;;;;;17.85;100.00;101422.81;5035615;28;20076;-46
2023/06/21 05:20:17;;;;;;;11.98;3.38;;;;;;;17.99;100.00;101424.47;5032621;28;20028;-48
2023/06/21 05:22:43;;;;;;;7.50;3.42;;;;;;;18.11;100.00;101436.31;5028574;28;20137;-47
2023/06/21 05:25:10;;;;;;;6.38;3.20;;;;;;;18.16;100.00;101436.50;5037828;28;20107;-47
2023/06/21 05:27:35;;;;;;;5.30;3.13;;;;;;;18.26;100.00;101435.22;5018189;28;20547;-48
2023/06/21 05:30:01;;;;;;;9.10;3.17;;;;;;;18.36;100.00;101447.31;5035761;28;20088;-47
2023/06/21 05:32:26;;;;;;;6.15;3.05;;;;;;;18.41;100.00;101438.47;5035582;28;20068;-51
2023/06/21 05:34:53;;;;;;;12.25;2.90;;;;;;;18.50;100.00;101439.88;5030186;28;20093;-46
2023/06/21 05:37:18;;;;;;;10.68;2.88;;;;;;;18.56;100.00;101438.16;5038290;28;20545;-48
2023/06/21 05:39:44;;;;;;;10.35;3.20;;;;;;;18.53;100.00;101433.97;5028702;28;21452;-47
2023/06/21 05:42:09;;;;;;;9.55;2.53;;;;;;;18.68;100.00;101443.75;5041488;28;20079;-48
2023/06/21 05:44:35;;;;;;;8.13;2.80;;;;;;;18.64;100.00;101449.66;5030502;28;20458;-46
2023/06/21 05:47:00;;;;;;;6.03;2.53;;;;;;;18.67;100.00;101442.91;5033396;28;20029;-48
2023/06/21 05:49:26;;;;;;;9.10;2.85;;;;;;;18.67;100.00;101442.06;5045156;28;20036;-47
2023/06/21 05:51:51;;;;;;;11.07;3.33;;;;;;;18.76;100.00;101443.50;5047974;28;20112;-52
2023/06/21 05:54:16;;;;;;;10.00;2.80;;;;;;;18.83;100.00;101438.84;5042521;28;20388;-48
2023/06/21 05:56:42;;;;;;;12.05;3.28;;;;;;;18.98;100.00;101444.78;5033974;28;20056;-51
2023/06/21 05:59:07;;;;;;;14.55;2.60;;;;;;;18.99;100.00;101449.19;5036561;28;20025;-48
2023/06/21 06:01:33;;;;;;;9.23;2.45;;;;;;;19.06;100.00;101449.13;5046257;28;20483;-49
2023/06/21 06:03:58;;;;;;;10.20;2.60;;;;;;;19.12;100.00;101448.25;5040602;28;20601;-48
2023/06/21 06:06:42;;;;;;;9.23;2.70;;;;;;;19.14;100.00;101453.44;5031694;28;20030;-47
2023/06/21 06:09:09;;;;;;;7.68;1.70;;;;;;;19.23;100.00;101452.13;5048133;28;20029;-47
2023/06/21 06:11:34;;;;;;;6.38;2.28;;;;;;;19.28;100.00;101447.66;5027587;28;20022;-48
2023/06/21 06:13:59;;;;;;;6.65;1.80;;;;;;;19.35;100.00;101449.47;5030090;28;20060;-46
2023/06/21 06:16:25;;;;;;;6.07;2.17;;;;;;;19.42;100.00;101456.53;5040754;28;20053;-45
2023/06/21 06:18:50;;;;;;;12.57;3.30;;;;;;;19.52;100.00;101454.13;5043767;28;20030;-49
2023/06/21 06:21:21;;;;;;;6.75;2.53;;;;;;;19.53;100.00;101453.06;5047912;28;20029;-46
2023/06/21 06:23:51;;;;;;;13.77;2.65;;;;;;;19.58;100.00;101455.09;5049562;28;20316;-46
2023/06/21 06:26:28;;;;;;;6.18;2.08;;;;;;;19.79;100.00;101456.59;5031802;28;20601;-47
2023/06/21 06:28:54;;;;;;;9.85;2.40;;;;;;;19.92;100.00;101453.69;5031594;28;20124;-48
2023/06/21 06:31:21;;;;;;;5.90;2.28;;;;;;;20.01;100.00;101461.56;5039447;28;20037;-47
2023/06/21 06:33:47;;;;;;;5.32;1.92;;;;;;;20.23;100.00;101451.81;5048765;28;20025;-46
2023/06/21 06:36:12;;;;;;;7.03;2.17;;;;;;;20.49;100.00;101456.09;5039151;28;20483;-47
2023/06/21 06:38:37;;;;;;;9.43;2.10;;;;;;;20.67;100.00;101460.69;5034764;28;20364;-48
2023/06/21 06:41:03;;;;;;;11.70;2.47;;;;;;;20.75;100.00;101465.00;5019153;28;20029;-48
2023/06/21 06:43:28;;;;;;;6.50;1.63;;;;;;;20.88;100.00;101461.19;5049215;28;20067;-49
2023/06/21 06:45:53;;;;;;;5.50;1.70;;;;;;;20.68;100.00;101470.56;5040006;28;20469;-51
2023/06/21 06:48:20;;;;;;;5.68;2.10;;;;;;;20.53;100.00;101473.69;5043686;28;20414;-52
2023/06/21 06:50:46;;;;;;;10.10;2.53;;;;;;;20.77;100.00;101474.63;5047720;28;20089;-49
2023/06/21 06:53:11;;;;;;;8.38;3.50;;;;;;;20.91;100.00;101485.38;5052384;28;20112;-49
2023/06/21 06:55:36;;;;;;;3.65;1.90;;;;;;;20.83;100.00;101468.22;5051994;28;20025;-47
2023/06/21 06:58:02;;;;;;;11.35;2.10;;;;;;;21.14;100.00;101476.31;5042897;28;20484;-47
2023/06/21 07:00:27;;;;;;;6.50;1.73;;;;;;;21.45;100.00;101476.00;5049209;28;20063;-48
2023/06/21 07:02:57;;;;;;;7.90;1.75;;;;;;;21.74;100.00;101483.47;5038615;28;20437;-48
2023/06/21 07:05:23;;;;;;;6.93;2.20;;;;;;;22.15;100.00;101482.44;5045019;28;20119;-47
2023/06/21 07:07:49;;;;;;;12.80;2.70;;;;;;;22.70;100.00;101476.38;5046507;28;20479;-47
2023/06/21 07:10:15;;;;;;;10.60;4.72;;;;;;;23.70;100.00;101484.81;5050030;28;20086;-51
2023/06/21 07:12:40;;;;;;;4.40;2.13;;;;;;;23.82;100.00;101480.03;5051607;28;20114;-47
2023/06/21 07:15:06;;;;;;;5.35;2.17;;;;;;;24.18;100.00;101485.16;5037323;28;20811;-47
2023/06/21 07:17:31;;;;;;;8.30;1.98;;;;;;;25.02;100.00;101492.09;5048867;28;20406;-47
2023/06/21 07:19:56;;;;;;;7.97;2.47;;;;;;;25.78;100.00;101491.78;5036901;28;20021;-46
2023/06/21 07:22:23;;;;;;;5.25;1.80;;;;;;;26.34;100.00;101493.97;5051128;28;20040;-47
2023/06/21 07:24:48;;;;;;;5.10;2.25;;;;;;;26.97;99.05;101496.56;5050779;28;20090;-49
2023/06/21 07:27:14;;;;;;;5.55;2.22;;;;;;;26.48;99.16;101504.19;5035500;28;20101;-48
2023/06/21 07:29:39;;;;;;;6.50;2.20;;;;;;;26.17;100.00;101496.91;5038156;28;20487;-48
2023/06/21 07:32:05;;;;;;;10.35;2.45;;;;;;;26.76;100.00;101504.81;5040595;28;20045;-47
2023/06/21 07:34:30;;;;;;;6.13;2.50;;;;;;;27.10;100.00;101501.53;5033263;28;20095;-51
2023/06/21 07:36:56;;;;;;;4.68;2.17;;;;;;;27.52;95.98;101497.63;5051414;28;20128;-49
2023/06/21 07:39:21;;;;;;;5.03;2.47;;;;;;;27.99;95.60;101504.72;5045842;28;20026;-49
2023/06/21 07:41:46;;;;;;;5.43;2.55;;;;;;;28.14;95.75;101504.59;5042618;28;20044;-48
2023/06/21 07:44:12;;;;;;;8.30;2.67;;;;;;;28.13;94.19;101500.19;5052437;28;20514;-48
2023/06/21 07:46:37;;;;;;;10.38;3.05;;;;;;;28.02;90.34;101513.25;5050014;28;20128;-47
2023/06/21 07:49:03;;;;;;;5.97;2.47;;;;;;;27.81;92.32;101510.84;5036688;28;20021;-49
2023/06/21 07:51:28;;;;;;;7.45;2.92;;;;;;;27.71;93.92;101517.22;5036430;28;20101;-47
2023/06/21 07:53:54;;;;;;;3.42;2.33;;;;;;;27.44;96.47;101512.84;5032159;28;20483;-51
2023/06/21 07:56:19;;;;;;;6.07;2.53;;;;;;;27.72;97.30;101514.16;5043604;28;20486;-54
2023/06/21 07:58:46;;;;;;;5.40;2.42;;;;;;;28.20;96.46;101509.03;5050940;28;20554;-51
2023/06/21 08:01:12;;;;;;;12.20;3.80;;;;;;;28.93;92.62;101513.00;5044658;28;20052;-49
2023/06/21 08:03:38;;;;;;;8.20;4.00;;;;;;;29.22;88.77;101524.13;5031832;28;20029;-45
2023/06/21 08:06:05;;;;;;;5.95;2.58;;;;;;;29.72;87.23;101521.19;5039296;28;20521;-47
2023/06/21 08:08:30;;;;;;;7.78;2.63;;;;;;;29.98;87.88;101522.53;5031117;28;20061;-47
2023/06/21 08:10:56;;;;;;;8.77;3.20;;;;;;;30.17;85.40;101532.84;5039241;28;20033;-48
2023/06/21 08:13:23;;;;;;;8.37;2.63;;;;;;;30.31;82.79;101536.59;5022512;28;20046;-47
2023/06/21 08:15:51;;;;;;;7.15;2.60;;;;;;;30.26;82.25;101528.31;5037963;28;20383;-50
2023/06/21 08:18:16;;;;;;;7.95;2.90;;;;;;;29.54;83.70;101531.88;5047096;28;20037;-48
2023/06/21 08:20:41;;;;;;;10.67;2.53;;;;;;;29.13;84.84;101542.53;5044370;28;20028;-47
2023/06/21 08:23:07;;;;;;;7.13;2.97;;;;;;;28.36;87.78;101542.16;5043005;28;20038;-47
2023/06/21 08:25:32;;;;;;;6.97;2.70;;;;;;;28.71;87.00;101534.78;5047085;28;20040;-47
2023/06/21 08:27:58;;;;;;;12.63;2.80;;;;;;;29.04;85.90;101538.69;5041901;28;20543;-47
2023/06/21 08:30:24;;;;;;;8.60;3.10;;;;;;;29.44;86.29;101532.00;5034622;28;20481;-47
2023/06/21 08:32:50;;;;;;;11.73;3.30;;;;;;;30.10;84.86;101546.28;5052083;28;20061;-49
2023/06/21 08:35:16;;;;;;;9.77;3.73;;;;;;;30.35;82.53;101540.41;5035759;28;20068;-49
2023/06/21 08:37:53;;;;;;;8.80;2.73;;;;;;;30.40;78.65;101543.09;5029591;28;20037;-48
2023/06/21 08:40:23;;;;;;;10.05;2.85;;;;;;;30.46;80.73;101541.06;5032936;28;20219;-46
2023/06/21 08:42:49;;;;;;;9.80;3.08;;;;;;;30.34;81.42;101546.28;5048505;28;20044;-49
2023/06/21 08:45:14;;;;;;;7.50;3.10;;;;;;;30.11;81.28;101547.91;5039496;28;20032;-48
2023/06/21 08:47:43;;;;;;;6.33;2.73;;;;;;;29.31;81.87;101547.34;5051060;28;20044;-46
2023/06/21 08:50:11;;;;;;;11.50;3.55;;;;;;;30.12;84.09;101549.56;5035647;28;20480;-48
2023/06/21 08:52:38;;;;;;;8.02;3.28;;;;;;;30.58;80.88;101554.53;5030188;28;20053;-48
2023/06/21 08:55:12;;;;;;;6.32;2.72;;;;;;;30.13;80.31;101559.56;5039440;28;20058;-48
2023/06/21 08:57:40;;;;;;;7.85;3.08;;;;;;;28.57;84.84;101560.34;5049773;28;20525;-48
2023/06/21 09:00:07;;;;;;;8.93;3.33;;;;;;;28.25;87.00;101557.97;5051711;28;20033;-46
2023/06/21 09:02:48;;;;;;;7.72;3.47;;;;;;;27.16;91.49;101566.72;5049804;28;20029;-50
2023/06/21 09:05:17;;;;;;;6.60;3.60;;;;;;;27.66;93.54;101570.59;5033965;28;20095;-51
2023/06/21 09:07:46;;;;;;;8.63;3.33;;;;;;;28.51;90.90;101568.97;5038357;28;20043;-47
2023/06/21 09:10:15;;;;;;;7.75;3.60;;;;;;;28.26;88.93;101572.66;5015584;28;20041;-47
2023/06/21 09:12:42;;;;;;;9.00;3.53;;;;;;;28.36;90.11;101578.97;5039903;28;20129;-46
2023/06/21 09:15:08;;;;;;;5.97;3.75;;;;;;;26.97;92.67;101573.91;5040394;28;20368;-46
2023/06/21 09:17:33;;;;;;;7.47;3.73;;;;;;;26.39;95.52;101574.84;5044710;28;20443;-50
2023/06/21 09:20:01;;;;;;;7.00;3.50;;;;;;;27.17;96.15;101573.94;5021524;28;20095;-48
2023/06/21 09:22:27;;;;;;;8.32;3.35;;;;;;;27.26;93.42;101566.75;5046999;28;20394;-48
2023/06/21 09:24:53;;;;;;;11.07;4.00;;;;;;;28.19;93.65;101572.97;5047725;28;20029;-48
2023/06/21 09:27:19;;;;;;;13.65;3.70;;;;;;;29.25;89.38;101565.16;5045847;28;20099;-48
2023/06/21 09:29:44;;;;;;;10.73;4.05;;;;;;;29.82;84.02;101571.00;5049354;28;20056;-50
2023/06/21 09:32:10;;;;;;;6.30;3.40;;;;;;;30.21;83.86;101572.78;5032789;28;20036;-50
2023/06/21 09:34:36;;;;;;;11.20;4.17;;;;;;;30.56;81.49;101573.44;5049660;28;20039;-47
2023/06/21 09:37:01;;;;;;;12.50;3.90;;;;;;;30.50;81.95;101571.88;5032892;28;20110;-47
2023/06/21 09:39:28;;;;;;;16.93;4.30;;;;;;;30.76;79.52;101573.16;5050868;28;20036;-46
2023/06/21 09:41:54;;;;;;;14.93;3.97;;;;;;;30.53;79.37;101579.59;5050073;28;20068;-47
2023/06/21 09:44:20;;;;;;;7.87;3.67;;;;;;;30.77;80.40;101572.03;5050630;28;20071;-49
2023/06/21 09:46:47;;;;;;;15.82;4.40;;;;;;;30.88;80.20;101574.69;5050500;28;20033;-48
2023/06/21 09:49:13;;;;;;;10.18;5.78;;;;;;;30.86;79.63;101586.13;5050972;28;20454;-47
2023/06/21 09:51:46;;;;;;;9.00;3.97;;;;;;;30.15;81.99;101582.31;5050783;28;20027;-47
2023/06/21 09:54:11;;;;;;;8.07;4.40;;;;;;;28.98;84.39;101585.00;5049167;28;20032;-49
2023/06/21 09:56:37;;;;;;;10.93;4.20;;;;;;;29.39;85.44;101593.03;5050630;28;20076;-47
2023/06/21 09:59:03;;;;;;;9.17;4.63;;;;;;;28.45;85.61;101599.44;5048908;28;20044;-48
2023/06/21 10:01:40;;;;;;;9.82;3.88;;;;;;;28.65;89.60;101603.25;5032725;28;20279;-47
2023/06/21 10:04:13;;;;;;;9.30;4.22;;;;;;;29.33;84.54;101602.50;5048644;28;20537;-46
2023/06/21 10:06:50;;;;;;;9.88;4.20;;;;;;;29.26;85.00;101607.56;5050300;28;20025;-47
2023/06/21 10:09:15;;;;;;;7.13;3.40;;;;;;;29.28;83.68;101606.16;5048630;28;20074;-46
2023/06/21 10:11:43;;;;;;;12.45;4.25;;;;;;;29.55;83.23;101610.38;5045955;28;20025;-49
2023/06/21 10:14:26;;;;;;;10.88;4.30;;;;;;;28.66;86.14;101624.28;5028474;28;20049;-47
2023/06/21 10:16:55;;;;;;;9.15;3.80;;;;;;;28.13;89.62;101619.19;5039967;28;20051;-45
2023/06/21 10:19:22;;;;;;;11.25;4.35;;;;;;;28.58;89.80;101620.16;5048707;28;20021;-47
2023/06/21 10:21:51;;;;;;;9.85;3.90;;;;;;;28.13;88.12;101627.50;5048826;28;20037;-47
2023/06/21 10:24:17;;;;;;;13.18;3.47;;;;;;;28.05;91.02;101630.84;5049916;28;20025;-47
2023/06/21 10:26:44;;;;;;;9.75;3.72;;;;;;;28.61;88.83;101636.19;5047773;28;20105;-46
2023/06/21 10:29:09;;;;;;;8.57;3.97;;;;;;;28.67;87.01;101642.53;5051793;28;20052;-47
2023/06/21 10:31:36;;;;;;;10.75;3.78;;;;;;;29.12;86.62;101643.41;5059063;28;20717;-46
2023/06/21 10:34:05;;;;;;;6.72;3.63;;;;;;;29.13;84.71;101647.03;5038873;28;20021;-47
2023/06/21 10:36:31;;;;;;;11.45;4.30;;;;;;;29.06;86.70;101642.63;5022555;28;20029;-50
2023/06/21 10:39:02;;;;;;;8.73;3.67;;;;;;;29.75;85.89;101637.97;5052697;28;20025;-50
2023/06/21 10:41:27;;;;;;;8.02;3.53;;;;;;;29.98;82.24;101647.41;5037796;28;20040;-48
2023/06/21 10:43:53;;;;;;;10.63;4.20;;;;;;;29.76;83.74;101638.78;5053055;28;20029;-48
2023/06/21 10:46:18;;;;;;;10.20;4.03;;;;;;;29.56;82.59;101636.97;5054180;28;20029;-47
2023/06/21 10:48:45;;;;;;;9.48;4.55;;;;;;;29.14;83.81;101643.13;5052792;28;20029;-48
2023/06/21 10:51:10;;;;;;;12.60;4.38;;;;;;;28.75;85.97;101641.94;5035840;28;20171;-47
2023/06/21 10:53:36;;;;;;;7.60;4.00;;;;;;;29.00;87.08;101646.53;5052674;28;20032;-47
2023/06/21 10:56:05;;;;;;;11.73;4.50;;;;;;;28.91;87.31;101658.47;5052664;28;20021;-49
2023/06/21 10:58:30;;;;;;;10.50;4.97;;;;;;;28.37;89.32;101657.31;5053663;28;20077;-49
2023/06/21 11:00:57;;;;;;;13.20;4.72;;;;;;;28.54;89.55;101660.63;5052861;28;20429;-50
2023/06/21 11:03:26;;;;;;;11.20;4.80;;;;;;;28.44;91.68;101666.19;5052633;28;20049;-45
2023/06/21 11:05:55;;;;;;;10.65;4.05;;;;;;;28.60;88.99;101678.88;5053932;28;20534;-48
2023/06/21 11:08:31;;;;;;;16.92;4.70;;;;;;;29.13;88.75;101672.81;5052137;28;20346;-48
2023/06/21 11:10:56;;;;;;;9.00;4.25;;;;;;;29.59;85.11;101678.00;5052215;28;20029;-48
2023/06/21 11:13:39;;;;;;;14.20;4.72;;;;;;;29.19;84.50;101679.97;5053376;28;20032;-47